Time;durP1;ratioP1;P1;durP2;ratioP2;P2;SDS_P1;SDS_P2;PMS_P1;PMS_P2;Temp;Humidity;BMP_temperature;BMP_pressure;BME280_temperature;BME280_humidity;BME280_pressure;Samples;Min_cycle;Max_cycle;Signal;HPM_P1;HPM_P2
2022/08/25 00:01:13;;;;;;;1.15;1.15;;;;;;;;;;5066217;28;20203;-67
2022/08/25 00:03:40;;;;;;;1.40;1.40;;;;;;;;;;5069338;28;20523;-67
2022/08/25 00:06:08;;;;;;;2.47;1.50;;;;;;;;;;5059159;28;20210;-67
2022/08/25 00:08:36;;;;;;;1.60;1.60;;;;;;;;;;5048629;28;20215;-67
2022/08/25 00:11:04;;;;;;;1.60;1.52;;;;;;;;;;5056993;28;20309;-67
2022/08/25 00:13:31;;;;;;;1.73;1.73;;;;;;;;;;5054600;28;20223;-67
2022/08/25 00:15:58;;;;;;;1.92;1.83;;;;;;;;;;5066568;28;20264;-67
2022/08/25 00:18:27;;;;;;;1.73;1.63;;;;;;;;;;5053543;28;20223;-68
2022/08/25 00:20:54;;;;;;;1.20;1.20;;;;;;;;;;5051194;28;20227;-67
2022/08/25 00:23:21;;;;;;;1.27;1.27;;;;;;;;;;5064219;28;20657;-67
2022/08/25 00:25:49;;;;;;;1.60;1.50;;;;;;;;;;5061215;28;20203;-67
2022/08/25 00:28:17;;;;;;;1.50;1.50;;;;;;;;;;5049356;28;20627;-67
2022/08/25 00:30:44;;;;;;;1.25;1.25;;;;;;;;;;5061930;28;20674;-67
2022/08/25 00:33:11;;;;;;;1.58;1.58;;;;;;;;;;5067836;28;20644;-67
2022/08/25 00:35:41;;;;;;;1.75;1.75;;;;;;;;;;5062736;28;20208;-67
2022/08/25 00:38:08;;;;;;;1.27;1.20;;;;;;;;;;5057076;28;20239;-67
2022/08/25 00:40:36;;;;;;;1.60;1.60;;;;;;;;;;5056531;28;20239;-67
2022/08/25 00:43:04;;;;;;;1.67;1.42;;;;;;;;;;5048376;28;20242;-67
2022/08/25 00:45:31;;;;;;;1.60;1.60;;;;;;;;;;5052237;28;20199;-67
2022/08/25 00:47:58;;;;;;;1.60;1.60;;;;;;;;;;5064512;28;20630;-68
2022/08/25 00:50:26;;;;;;;4.10;1.48;;;;;;;;;;5067813;28;20210;-68
2022/08/25 00:52:56;;;;;;;1.63;1.63;;;;;;;;;;5067333;28;20235;-68
2022/08/25 00:55:25;;;;;;;1.75;1.70;;;;;;;;;;5055906;28;20207;-68
2022/08/25 00:57:55;;;;;;;1.60;1.60;;;;;;;;;;5050447;28;20211;-68
2022/08/25 01:00:24;;;;;;;1.42;1.42;;;;;;;;;;5052752;28;20203;-68
2022/08/25 01:02:51;;;;;;;1.38;1.38;;;;;;;;;;5048750;28;20208;-67
2022/08/25 01:05:19;;;;;;;1.80;1.80;;;;;;;;;;5062691;28;20203;-68
2022/08/25 01:07:49;;;;;;;1.33;1.33;;;;;;;;;;5049435;28;20677;-68
2022/08/25 01:10:18;;;;;;;2.55;1.48;;;;;;;;;;5068348;28;20574;-68
2022/08/25 01:12:45;;;;;;;1.85;1.75;;;;;;;;;;5068090;28;20265;-68
2022/08/25 01:15:13;;;;;;;1.65;1.65;;;;;;;;;;5047879;28;20207;-67
2022/08/25 01:17:46;;;;;;;1.52;1.52;;;;;;;;;;5048150;28;20755;-67
2022/08/25 01:20:13;;;;;;;1.80;1.80;;;;;;;;;;5048169;28;20211;-67
2022/08/25 01:22:42;;;;;;;1.63;1.48;;;;;;;;;;5051408;28;20235;-67
2022/08/25 01:25:15;;;;;;;1.58;1.58;;;;;;;;;;5051659;28;20253;-67
2022/08/25 01:27:42;;;;;;;1.73;1.73;;;;;;;;;;5051870;28;20200;-67
2022/08/25 01:30:10;;;;;;;1.58;1.58;;;;;;;;;;5051734;28;20639;-67
2022/08/25 01:32:37;;;;;;;2.35;1.50;;;;;;;;;;5054969;28;20235;-67
2022/08/25 01:35:04;;;;;;;1.85;1.75;;;;;;;;;;5069157;28;20230;-67
2022/08/25 01:37:34;;;;;;;1.50;1.50;;;;;;;;;;5071124;28;20199;-67
2022/08/25 01:40:02;;;;;;;1.95;1.85;;;;;;;;;;5056144;28;20211;-67
2022/08/25 01:42:38;;;;;;;2.22;2.13;;;;;;;;;;5061230;28;20215;-67
2022/08/25 01:45:05;;;;;;;2.47;1.98;;;;;;;;;;5054912;28;20303;-67
2022/08/25 01:47:32;;;;;;;1.50;1.45;;;;;;;;;;5058076;28;20203;-67
2022/08/25 01:50:00;;;;;;;1.55;1.55;;;;;;;;;;5065982;28;20608;-68
2022/08/25 01:52:29;;;;;;;1.50;1.50;;;;;;;;;;5071301;28;20595;-66
2022/08/25 01:54:56;;;;;;;1.55;1.50;;;;;;;;;;5062585;28;20210;-65
2022/08/25 01:57:24;;;;;;;1.90;1.80;;;;;;;;;;5071499;28;20219;-65
2022/08/25 01:59:51;;;;;;;1.88;1.77;;;;;;;;;;5062750;28;20207;-65
2022/08/25 02:02:18;;;;;;;1.98;1.88;;;;;;;;;;5069854;28;20211;-65
2022/08/25 02:04:46;;;;;;;1.88;1.80;;;;;;;;;;5067964;28;20203;-65
2022/08/25 02:07:13;;;;;;;2.60;1.75;;;;;;;;;;5070514;28;20206;-68
2022/08/25 02:09:40;;;;;;;1.67;1.67;;;;;;;;;;5059621;28;20212;-68
2022/08/25 02:12:09;;;;;;;1.95;1.90;;;;;;;;;;5056324;28;20261;-68
2022/08/25 02:14:37;;;;;;;1.52;1.52;;;;;;;;;;5058128;28;20208;-65
2022/08/25 02:17:05;;;;;;;1.95;1.85;;;;;;;;;;5052923;28;20241;-65
2022/08/25 02:19:32;;;;;;;2.30;1.95;;;;;;;;;;5058630;28;20277;-65
2022/08/25 02:21:59;;;;;;;2.30;2.20;;;;;;;;;;5053782;28;20235;-65
2022/08/25 02:24:27;;;;;;;1.70;1.70;;;;;;;;;;5053711;28;20554;-65
2022/08/25 02:26:54;;;;;;;2.25;2.05;;;;;;;;;;5051508;28;20215;-68
2022/08/25 02:29:21;;;;;;;2.08;1.90;;;;;;;;;;5055163;28;20203;-67
2022/08/25 02:31:50;;;;;;;1.63;1.63;;;;;;;;;;5051858;28;20318;-65
2022/08/25 02:34:17;;;;;;;1.67;1.67;;;;;;;;;;5055855;28;20235;-64
2022/08/25 02:36:44;;;;;;;1.98;1.88;;;;;;;;;;5054624;28;20207;-65
2022/08/25 02:39:11;;;;;;;1.98;1.98;;;;;;;;;;5057050;28;20208;-66
2022/08/25 02:41:39;;;;;;;1.85;1.85;;;;;;;;;;5050364;28;20215;-65
2022/08/25 02:44:07;;;;;;;2.50;2.30;;;;;;;;;;5051542;28;20692;-68
2022/08/25 02:46:34;;;;;;;1.67;1.67;;;;;;;;;;5064982;28;20219;-65
2022/08/25 02:49:02;;;;;;;4.20;1.85;;;;;;;;;;5059453;28;20288;-65
2022/08/25 02:51:30;;;;;;;1.90;1.80;;;;;;;;;;5050289;28;20211;-65
2022/08/25 02:53:57;;;;;;;5.72;2.17;;;;;;;;;;5059258;28;20338;-68
2022/08/25 02:56:25;;;;;;;2.08;1.95;;;;;;;;;;5053030;28;20215;-65
2022/08/25 02:58:52;;;;;;;1.95;1.70;;;;;;;;;;5057971;28;20293;-65
2022/08/25 03:01:19;;;;;;;2.97;2.17;;;;;;;;;;5069123;28;20203;-65
2022/08/25 03:03:47;;;;;;;1.83;1.73;;;;;;;;;;5066656;28;20260;-65
2022/08/25 03:06:17;;;;;;;1.90;1.90;;;;;;;;;;5065211;28;20207;-65
2022/08/25 03:08:44;;;;;;;2.08;2.00;;;;;;;;;;5051756;28;20671;-65
2022/08/25 03:11:12;;;;;;;2.08;2.00;;;;;;;;;;5069407;28;20206;-65
2022/08/25 03:13:39;;;;;;;1.65;1.65;;;;;;;;;;5060837;28;20223;-66
2022/08/25 03:16:09;;;;;;;2.30;2.08;;;;;;;;;;5069476;28;20657;-65
2022/08/25 03:18:36;;;;;;;1.85;1.75;;;;;;;;;;5059160;28;20769;-68
2022/08/25 03:21:03;;;;;;;2.40;2.30;;;;;;;;;;5068701;28;20292;-65
2022/08/25 03:23:31;;;;;;;2.13;1.90;;;;;;;;;;5060474;28;20287;-65
2022/08/25 03:28:43;;;;;;;2.10;2.00;;;;;;;;;;5052446;28;20211;-65
2022/08/25 03:31:10;;;;;;;2.08;1.98;;;;;;;;;;5049361;28;20222;-64
2022/08/25 03:33:38;;;;;;;2.50;2.30;;;;;;;;;;5051790;28;20227;-65
2022/08/25 03:36:06;;;;;;;1.73;1.63;;;;;;;;;;5067061;28;20229;-64
2022/08/25 03:38:37;;;;;;;2.10;2.00;;;;;;;;;;5060358;28;20963;-65
2022/08/25 03:41:11;;;;;;;1.80;1.70;;;;;;;;;;5060483;28;20208;-65
2022/08/25 03:43:38;;;;;;;2.20;2.10;;;;;;;;;;5048575;28;20232;-64
2022/08/25 03:46:05;;;;;;;2.50;2.33;;;;;;;;;;5048790;28;20211;-64
2022/08/25 03:48:32;;;;;;;2.00;1.90;;;;;;;;;;5049107;28;20219;-66
2022/08/25 03:50:59;;;;;;;1.90;1.80;;;;;;;;;;5048620;28;20219;-65
2022/08/25 03:53:26;;;;;;;1.65;1.63;;;;;;;;;;5048347;28;20223;-65
2022/08/25 03:55:56;;;;;;;2.47;2.28;;;;;;;;;;5067568;28;20215;-65
2022/08/25 03:58:23;;;;;;;2.20;2.10;;;;;;;;;;5051016;28;20413;-64
2022/08/25 04:00:50;;;;;;;2.60;1.95;;;;;;;;;;5054725;28;20227;-65
2022/08/25 04:03:18;;;;;;;3.45;2.03;;;;;;;;;;5068003;28;20199;-64
2022/08/25 04:05:46;;;;;;;1.70;1.70;;;;;;;;;;5067684;28;20306;-66
2022/08/25 04:08:13;;;;;;;2.30;2.20;;;;;;;;;;5053973;28;20663;-65
2022/08/25 04:10:40;;;;;;;2.13;2.03;;;;;;;;;;5049810;28;20207;-64
2022/08/25 04:13:09;;;;;;;2.05;1.90;;;;;;;;;;5052308;28;20326;-65
2022/08/25 04:15:36;;;;;;;2.30;2.20;;;;;;;;;;5063872;28;20282;-65
2022/08/25 04:18:04;;;;;;;2.78;2.58;;;;;;;;;;5048639;28;20810;-65
2022/08/25 04:20:31;;;;;;;2.45;2.25;;;;;;;;;;5061758;28;20222;-64
2022/08/25 04:23:00;;;;;;;2.10;2.00;;;;;;;;;;5064152;28;20226;-66
2022/08/25 04:25:27;;;;;;;2.35;2.00;;;;;;;;;;5067536;28;20199;-65
2022/08/25 04:27:54;;;;;;;2.22;2.13;;;;;;;;;;5067754;28;20789;-66
2022/08/25 04:30:23;;;;;;;2.42;2.30;;;;;;;;;;5062616;28;20225;-65
2022/08/25 04:32:50;;;;;;;1.80;1.70;;;;;;;;;;5048239;28;20218;-65
2022/08/25 04:35:17;;;;;;;2.25;2.15;;;;;;;;;;5048071;28;20212;-65
2022/08/25 04:37:50;;;;;;;2.33;2.22;;;;;;;;;;5048427;28;20204;-65
2022/08/25 04:40:17;;;;;;;2.13;2.03;;;;;;;;;;5059250;28;20211;-65
2022/08/25 04:42:44;;;;;;;2.05;2.03;;;;;;;;;;5052902;28;20207;-65
2022/08/25 04:45:11;;;;;;;2.42;1.80;;;;;;;;;;5048550;28;20677;-66
2022/08/25 04:47:40;;;;;;;2.22;2.13;;;;;;;;;;5062100;28;20673;-66
2022/08/25 04:50:08;;;;;;;1.90;1.80;;;;;;;;;;5055409;28;20203;-65
2022/08/25 04:52:35;;;;;;;2.40;2.30;;;;;;;;;;5060765;28;20213;-65
2022/08/25 04:55:02;;;;;;;2.45;2.28;;;;;;;;;;5065750;28;20249;-66
2022/08/25 04:57:29;;;;;;;2.47;2.35;;;;;;;;;;5060973;28;20617;-65
2022/08/25 04:59:56;;;;;;;3.53;2.35;;;;;;;;;;5063376;28;20213;-65
2022/08/25 05:02:24;;;;;;;2.35;2.15;;;;;;;;;;5070757;28;20203;-66
2022/08/25 05:04:52;;;;;;;2.15;2.05;;;;;;;;;;5061498;28;20232;-65
2022/08/25 05:07:19;;;;;;;1.92;1.85;;;;;;;;;;5060376;28;20214;-66
2022/08/25 05:09:46;;;;;;;2.75;2.65;;;;;;;;;;5067184;28;20207;-65
2022/08/25 05:12:13;;;;;;;2.40;2.30;;;;;;;;;;5067181;28;20215;-65
2022/08/25 05:14:40;;;;;;;2.20;2.10;;;;;;;;;;5052807;28;20246;-65
2022/08/25 05:17:07;;;;;;;2.47;2.38;;;;;;;;;;5062741;28;20756;-64
2022/08/25 05:19:35;;;;;;;2.75;1.80;;;;;;;;;;5055274;28;20254;-65
2022/08/25 05:22:04;;;;;;;2.30;2.20;;;;;;;;;;5056102;28;20239;-65
2022/08/25 05:24:31;;;;;;;2.60;2.42;;;;;;;;;;5051967;28;20204;-65
2022/08/25 05:26:58;;;;;;;2.38;2.28;;;;;;;;;;5052506;28;20212;-68
2022/08/25 05:29:25;;;;;;;2.42;2.22;;;;;;;;;;5069793;28;20217;-67
2022/08/25 05:31:53;;;;;;;2.90;2.70;;;;;;;;;;5059340;28;20211;-67
2022/08/25 05:34:20;;;;;;;2.75;2.55;;;;;;;;;;5054545;28;20620;-66
2022/08/25 05:36:48;;;;;;;2.30;2.00;;;;;;;;;;5070312;28;20250;-66
2022/08/25 05:39:16;;;;;;;2.83;2.72;;;;;;;;;;5050023;28;20208;-66
2022/08/25 05:41:44;;;;;;;2.60;2.28;;;;;;;;;;5051993;28;20322;-66
2022/08/25 05:44:11;;;;;;;5.28;2.60;;;;;;;;;;5059303;28;20209;-65
2022/08/25 05:46:38;;;;;;;2.47;2.15;;;;;;;;;;5066171;28;20211;-65
2022/08/25 05:49:05;;;;;;;2.67;2.47;;;;;;;;;;5063455;28;20260;-65
2022/08/25 05:51:33;;;;;;;3.40;2.95;;;;;;;;;;5070551;28;20205;-65
2022/08/25 05:54:00;;;;;;;2.78;2.58;;;;;;;;;;5053167;28;20230;-66
2022/08/25 05:56:28;;;;;;;3.72;2.60;;;;;;;;;;5064951;28;20206;-65
2022/08/25 05:58:55;;;;;;;2.50;2.30;;;;;;;;;;5068546;28;20217;-66
2022/08/25 06:04:09;;;;;;;3.50;2.75;;;;;;;;;;5059485;28;20732;-64
2022/08/25 06:06:36;;;;;;;2.42;2.28;;;;;;;;;;5067805;28;20207;-65
2022/08/25 06:09:07;;;;;;;3.75;2.63;;;;;;;;;;5070992;28;20317;-64
2022/08/25 06:11:36;;;;;;;2.50;2.40;;;;;;;;;;5062262;28;20268;-64
2022/08/25 06:14:03;;;;;;;3.15;2.95;;;;;;;;;;5048662;28;20239;-66
2022/08/25 06:16:30;;;;;;;2.50;2.40;;;;;;;;;;5047945;28;20793;-64
2022/08/25 06:18:57;;;;;;;2.53;2.42;;;;;;;;;;5050556;28;20255;-63
2022/08/25 06:21:24;;;;;;;2.58;2.45;;;;;;;;;;5048603;28;20247;-65
2022/08/25 06:23:51;;;;;;;2.60;2.50;;;;;;;;;;5051247;28;20207;-66
2022/08/25 06:26:18;;;;;;;2.72;2.55;;;;;;;;;;5059516;28;20207;-66
2022/08/25 06:28:47;;;;;;;2.78;2.58;;;;;;;;;;5050739;28;20215;-65
2022/08/25 06:31:15;;;;;;;3.10;2.90;;;;;;;;;;5069126;28;20245;-65
2022/08/25 06:33:42;;;;;;;2.53;2.42;;;;;;;;;;5064885;28;20204;-66
2022/08/25 06:36:09;;;;;;;2.60;2.50;;;;;;;;;;5062457;28;20211;-66
2022/08/25 06:38:37;;;;;;;2.85;2.72;;;;;;;;;;5050381;28;20207;-66
2022/08/25 06:41:04;;;;;;;3.88;3.58;;;;;;;;;;5048708;28;20236;-64
2022/08/25 06:43:31;;;;;;;3.33;3.03;;;;;;;;;;5054057;28;20579;-63
2022/08/25 06:46:08;;;;;;;2.85;2.65;;;;;;;;;;5054754;28;20654;-67
2022/08/25 06:48:35;;;;;;;2.88;2.70;;;;;;;;;;5050223;28;20234;-64
2022/08/25 06:51:05;;;;;;;2.70;2.60;;;;;;;;;;5058715;28;20621;-66
2022/08/25 06:53:32;;;;;;;3.10;3.00;;;;;;;;;;5057156;28;20221;-64
2022/08/25 06:55:59;;;;;;;3.70;2.53;;;;;;;;;;5048559;28;20214;-63
2022/08/25 06:58:26;;;;;;;3.08;2.92;;;;;;;;;;5048830;28;20216;-63
2022/08/25 07:00:54;;;;;;;3.08;2.85;;;;;;;;;;5046641;28;20244;-62
2022/08/25 07:03:22;;;;;;;2.22;2.13;;;;;;;;;;5044914;28;20448;-63
2022/08/25 07:05:53;;;;;;;3.22;3.00;;;;;;;;;;5059539;28;20206;-63
2022/08/25 07:08:20;;;;;;;3.85;3.53;;;;;;;;;;5047048;28;20218;-67
2022/08/25 07:10:47;;;;;;;4.47;3.10;;;;;;;;;;5048930;28;20573;-62
2022/08/25 07:13:14;;;;;;;3.78;3.45;;;;;;;;;;5058243;28;20688;-64
2022/08/25 07:15:43;;;;;;;3.97;3.55;;;;;;;;;;5049413;28;20241;-65
2022/08/25 07:18:11;;;;;;;2.97;2.80;;;;;;;;;;5047124;28;20696;-63
2022/08/25 07:20:40;;;;;;;3.42;3.10;;;;;;;;;;5054126;28;20306;-64
2022/08/25 07:23:07;;;;;;;2.95;2.70;;;;;;;;;;5049769;28;20236;-64
2022/08/25 07:25:34;;;;;;;3.85;3.08;;;;;;;;;;5061166;28;20215;-63
2022/08/25 07:28:01;;;;;;;3.42;3.22;;;;;;;;;;5056257;28;20224;-64
2022/08/25 07:30:28;;;;;;;3.22;3.13;;;;;;;;;;5046240;28;20215;-64
2022/08/25 07:32:55;;;;;;;5.57;3.50;;;;;;;;;;5054009;28;20203;-64
2022/08/25 07:35:24;;;;;;;3.90;3.60;;;;;;;;;;5050783;28;20230;-64
2022/08/25 07:37:55;;;;;;;2.95;2.75;;;;;;;;;;5049029;28;20534;-63
2022/08/25 07:40:23;;;;;;;3.10;2.92;;;;;;;;;;5051292;28;20257;-66
2022/08/25 07:42:50;;;;;;;5.38;3.08;;;;;;;;;;5067000;28;20260;-70
2022/08/25 07:45:18;;;;;;;3.38;3.08;;;;;;;;;;5058576;28;20195;-64
2022/08/25 07:47:45;;;;;;;3.20;3.00;;;;;;;;;;5058200;28;20206;-66
2022/08/25 07:50:13;;;;;;;3.90;3.63;;;;;;;;;;5064325;28;20227;-63
2022/08/25 07:52:40;;;;;;;3.15;2.95;;;;;;;;;;5056029;28;20214;-67
2022/08/25 07:55:10;;;;;;;3.85;3.22;;;;;;;;;;5066021;28;20563;-64
2022/08/25 07:57:39;;;;;;;3.25;3.05;;;;;;;;;;5068643;28;20234;-64
2022/08/25 08:00:07;;;;;;;3.47;3.25;;;;;;;;;;5056309;28;20202;-63
2022/08/25 08:02:34;;;;;;;3.63;3.42;;;;;;;;;;5059893;28;20594;-64
2022/08/25 08:05:02;;;;;;;3.53;3.22;;;;;;;;;;5055540;28;20219;-64
2022/08/25 08:07:30;;;;;;;3.35;3.15;;;;;;;;;;5052969;28;20321;-63
2022/08/25 08:09:57;;;;;;;3.38;3.17;;;;;;;;;;5052176;28;20203;-63
2022/08/25 08:12:26;;;;;;;3.33;3.03;;;;;;;;;;5056146;28;20212;-64
2022/08/25 08:14:54;;;;;;;3.35;3.00;;;;;;;;;;5054330;28;20777;-64
2022/08/25 08:17:21;;;;;;;3.70;3.45;;;;;;;;;;5054210;28;20227;-63
2022/08/25 08:19:49;;;;;;;3.35;3.15;;;;;;;;;;5057179;28;20265;-64
2022/08/25 08:22:16;;;;;;;3.20;3.00;;;;;;;;;;5058826;28;20235;-64
2022/08/25 08:24:44;;;;;;;3.05;2.95;;;;;;;;;;5057759;28;20208;-64
2022/08/25 08:27:12;;;;;;;3.60;3.40;;;;;;;;;;5052946;28;20222;-65
2022/08/25 08:29:42;;;;;;;3.53;3.22;;;;;;;;;;5048052;28;20229;-64
2022/08/25 08:32:12;;;;;;;3.25;3.05;;;;;;;;;;5058360;28;20228;-64
2022/08/25 08:34:39;;;;;;;2.92;2.72;;;;;;;;;;5057074;28;20270;-64
2022/08/25 08:37:07;;;;;;;3.90;3.08;;;;;;;;;;5052831;28;20207;-64
2022/08/25 08:39:34;;;;;;;3.38;3.17;;;;;;;;;;5046516;28;20219;-64
2022/08/25 08:42:17;;;;;;;3.03;2.92;;;;;;;;;;5048677;28;20213;-64
2022/08/25 08:44:54;;;;;;;2.60;2.50;;;;;;;;;;5061330;28;20210;-64
2022/08/25 08:47:25;;;;;;;4.00;2.83;;;;;;;;;;5054747;28;20202;-63
2022/08/25 08:49:55;;;;;;;3.60;3.40;;;;;;;;;;5054417;28;20204;-64
2022/08/25 08:52:24;;;;;;;2.67;2.58;;;;;;;;;;5044407;28;20199;-64
2022/08/25 08:54:57;;;;;;;3.28;3.15;;;;;;;;;;5045133;28;20234;-64
2022/08/25 08:57:27;;;;;;;3.13;2.92;;;;;;;;;;5050582;28;20211;-63
2022/08/25 08:59:58;;;;;;;3.00;2.80;;;;;;;;;;5051349;28;20640;-63
2022/08/25 09:02:29;;;;;;;3.20;2.97;;;;;;;;;;5054234;28;20561;-62
2022/08/25 09:04:58;;;;;;;3.08;2.88;;;;;;;;;;5049488;28;20204;-63
2022/08/25 09:07:27;;;;;;;3.03;2.92;;;;;;;;;;5051917;28;20200;-63
2022/08/25 09:09:54;;;;;;;3.20;3.00;;;;;;;;;;5059082;28;20401;-63
2022/08/25 09:12:24;;;;;;;2.35;2.25;;;;;;;;;;5047232;28;20218;-63
2022/08/25 09:14:58;;;;;;;3.60;3.25;;;;;;;;;;5059531;28;20238;-63
2022/08/25 09:17:34;;;;;;;3.10;2.90;;;;;;;;;;5059470;28;20732;-63
2022/08/25 09:20:17;;;;;;;2.72;2.53;;;;;;;;;;5044938;28;20203;-63
2022/08/25 09:22:49;;;;;;;2.67;2.47;;;;;;;;;;5045271;28;20322;-63
2022/08/25 09:25:21;;;;;;;2.13;2.03;;;;;;;;;;5065524;28;20290;-64
2022/08/25 09:27:52;;;;;;;3.28;2.60;;;;;;;;;;5046793;28;20739;-63
2022/08/25 09:30:20;;;;;;;2.30;2.20;;;;;;;;;;5058354;28;20207;-63
2022/08/25 09:32:52;;;;;;;2.90;2.80;;;;;;;;;;5066383;28;20215;-63
2022/08/25 09:35:22;;;;;;;2.20;2.10;;;;;;;;;;5049146;28;20237;-63
2022/08/25 09:38:07;;;;;;;2.53;2.42;;;;;;;;;;5050158;28;20211;-63
2022/08/25 09:40:35;;;;;;;2.50;2.40;;;;;;;;;;5065673;28;20218;-65
2022/08/25 09:43:04;;;;;;;2.08;1.98;;;;;;;;;;5066845;28;20219;-64
2022/08/25 09:45:37;;;;;;;2.95;2.83;;;;;;;;;;5059413;28;20221;-65
2022/08/25 09:48:20;;;;;;;3.10;2.88;;;;;;;;;;5067230;28;20563;-65
2022/08/25 09:50:47;;;;;;;2.55;2.45;;;;;;;;;;5063093;28;20665;-66
2022/08/25 09:53:14;;;;;;;1.98;1.98;;;;;;;;;;5061511;28;20219;-65
2022/08/25 09:55:43;;;;;;;2.42;2.33;;;;;;;;;;5052341;28;20234;-65
2022/08/25 09:58:16;;;;;;;2.55;2.45;;;;;;;;;;5048336;28;20231;-66
2022/08/25 10:00:43;;;;;;;2.30;2.20;;;;;;;;;;5056353;28;20199;-66
2022/08/25 10:03:13;;;;;;;2.67;2.58;;;;;;;;;;5053808;28;20227;-66
2022/08/25 10:05:48;;;;;;;2.53;2.42;;;;;;;;;;5064510;28;20524;-64
2022/08/25 10:08:25;;;;;;;2.63;2.42;;;;;;;;;;5061321;28;20199;-64
2022/08/25 10:10:54;;;;;;;2.83;2.65;;;;;;;;;;5061474;28;20249;-64
2022/08/25 10:13:22;;;;;;;2.95;2.75;;;;;;;;;;5058194;28;20195;-63
2022/08/25 10:16:03;;;;;;;2.40;2.30;;;;;;;;;;5046796;28;20777;-63
2022/08/25 10:18:31;;;;;;;2.80;2.63;;;;;;;;;;5048452;28;20236;-60
2022/08/25 10:21:03;;;;;;;2.38;2.28;;;;;;;;;;5064994;28;20210;-63
2022/08/25 10:23:31;;;;;;;3.03;2.70;;;;;;;;;;5068950;28;20218;-64
2022/08/25 10:26:01;;;;;;;2.95;2.80;;;;;;;;;;5062196;28;20298;-65
2022/08/25 10:28:33;;;;;;;2.80;2.60;;;;;;;;;;5067570;28;20207;-63
2022/08/25 10:31:03;;;;;;;2.58;2.47;;;;;;;;;;5066747;28;20241;-63
2022/08/25 10:33:35;;;;;;;2.78;2.67;;;;;;;;;;5063992;28;20261;-64
2022/08/25 10:36:06;;;;;;;2.95;2.75;;;;;;;;;;5060171;28;20231;-63
2022/08/25 10:38:38;;;;;;;2.65;2.55;;;;;;;;;;5060828;28;20203;-66
2022/08/25 10:41:15;;;;;;;2.67;2.58;;;;;;;;;;5061792;28;20215;-64
2022/08/25 10:43:44;;;;;;;2.80;2.70;;;;;;;;;;5055412;28;20207;-64
2022/08/25 10:46:15;;;;;;;2.70;2.50;;;;;;;;;;5064290;28;20199;-64
2022/08/25 10:48:57;;;;;;;2.35;2.25;;;;;;;;;;5066910;28;20203;-63
2022/08/25 10:51:38;;;;;;;3.08;2.85;;;;;;;;;;5063290;28;20215;-65
2022/08/25 10:54:08;;;;;;;3.00;2.90;;;;;;;;;;5061142;28;20227;-62
2022/08/25 10:56:36;;;;;;;2.67;2.58;;;;;;;;;;5048872;28;20712;-65
2022/08/25 10:59:21;;;;;;;2.38;2.28;;;;;;;;;;5060140;28;20199;-65
2022/08/25 11:01:54;;;;;;;2.53;2.30;;;;;;;;;;5051404;28;20219;-65
2022/08/25 11:04:25;;;;;;;2.55;2.45;;;;;;;;;;5046763;28;20215;-66
2022/08/25 11:06:55;;;;;;;2.25;2.20;;;;;;;;;;5056599;28;20877;-65
2022/08/25 11:09:24;;;;;;;2.83;2.72;;;;;;;;;;5062323;28;20199;-65
2022/08/25 11:11:54;;;;;;;2.85;2.75;;;;;;;;;;5047203;28;20628;-65
2022/08/25 11:14:24;;;;;;;3.10;3.00;;;;;;;;;;5048180;28;20211;-65
2022/08/25 11:16:52;;;;;;;3.13;3.03;;;;;;;;;;5051692;28;20278;-64
2022/08/25 11:19:22;;;;;;;2.60;2.50;;;;;;;;;;5061377;28;20214;-66
2022/08/25 11:21:52;;;;;;;3.40;2.63;;;;;;;;;;5065032;28;20596;-66
2022/08/25 11:24:40;;;;;;;2.55;2.40;;;;;;;;;;5060639;28;20199;-66
2022/08/25 11:27:10;;;;;;;2.38;2.28;;;;;;;;;;5036859;28;20210;-65
2022/08/25 11:29:38;;;;;;;2.85;2.65;;;;;;;;;;5067508;28;20215;-66
2022/08/25 11:32:05;;;;;;;2.60;2.50;;;;;;;;;;5061045;28;20752;-66
2022/08/25 11:34:33;;;;;;;2.80;2.70;;;;;;;;;;5053838;28;20219;-65
2022/08/25 11:37:06;;;;;;;3.20;2.92;;;;;;;;;;5046647;28;20227;-66
2022/08/25 11:40:00;;;;;;;3.00;2.85;;;;;;;;;;5048514;28;20708;-65
2022/08/25 11:42:34;;;;;;;4.43;3.17;;;;;;;;;;5032468;28;20218;-65
2022/08/25 11:45:06;;;;;;;2.60;2.50;;;;;;;;;;5068200;28;20211;-65
2022/08/25 11:47:42;;;;;;;2.50;2.40;;;;;;;;;;5055306;28;20856;-65
2022/08/25 11:50:20;;;;;;;2.55;2.45;;;;;;;;;;5048661;28;21104;-66
2022/08/25 11:52:52;;;;;;;2.97;2.78;;;;;;;;;;5045934;28;20211;-66
2022/08/25 11:55:22;;;;;;;2.80;2.70;;;;;;;;;;5046246;28;20208;-66
2022/08/25 11:57:50;;;;;;;2.80;2.70;;;;;;;;;;5045362;28;20210;-64
2022/08/25 12:00:36;;;;;;;2.53;2.42;;;;;;;;;;5052186;28;20677;-62
2022/08/25 12:03:18;;;;;;;2.05;1.95;;;;;;;;;;5060958;28;20207;-63
2022/08/25 12:05:50;;;;;;;2.92;2.72;;;;;;;;;;5045568;28;20643;-63
2022/08/25 12:08:39;;;;;;;2.40;2.30;;;;;;;;;;5065415;28;20260;-66
2022/08/25 12:11:09;;;;;;;2.90;2.70;;;;;;;;;;5062850;28;20211;-63
2022/08/25 12:13:54;;;;;;;2.90;2.38;;;;;;;;;;5060804;28;20301;-66
2022/08/25 12:16:39;;;;;;;2.63;2.53;;;;;;;;;;5052973;28;20229;-66
2022/08/25 12:19:23;;;;;;;2.20;2.10;;;;;;;;;;5054053;28;20206;-66
2022/08/25 12:21:51;;;;;;;2.55;2.45;;;;;;;;;;5055986;28;20497;-66
2022/08/25 12:24:21;;;;;;;2.63;2.45;;;;;;;;;;5054017;28;20213;-66
2022/08/25 12:26:57;;;;;;;2.97;2.70;;;;;;;;;;5065395;28;20389;-66
2022/08/25 12:29:31;;;;;;;2.65;2.50;;;;;;;;;;5061726;28;20234;-65
2022/08/25 12:32:06;;;;;;;2.25;2.25;;;;;;;;;;5063829;28;20221;-66
2022/08/25 12:34:39;;;;;;;2.60;2.40;;;;;;;;;;5059116;28;20217;-67
2022/08/25 12:37:12;;;;;;;2.30;2.20;;;;;;;;;;5056452;28;20218;-66
2022/08/25 12:39:46;;;;;;;3.17;3.08;;;;;;;;;;5065470;28;20298;-66
2022/08/25 12:42:23;;;;;;;3.22;2.22;;;;;;;;;;5060002;28;20259;-66
2022/08/25 12:45:09;;;;;;;2.28;2.28;;;;;;;;;;5044214;28;20225;-66
2022/08/25 12:47:37;;;;;;;1.85;1.85;;;;;;;;;;5045251;28;20207;-66
2022/08/25 12:50:23;;;;;;;1.90;1.80;;;;;;;;;;5044586;28;20218;-66
2022/08/25 12:52:50;;;;;;;1.73;1.73;;;;;;;;;;5044520;28;20210;-68
2022/08/25 12:55:19;;;;;;;1.88;1.88;;;;;;;;;;5047113;28;20206;-68
2022/08/25 12:57:51;;;;;;;1.73;1.50;;;;;;;;;;5062916;28;20219;-67
2022/08/25 13:00:21;;;;;;;1.70;1.70;;;;;;;;;;5058426;28;20210;-68
2022/08/25 13:03:12;;;;;;;1.58;1.48;;;;;;;;;;5066928;28;20270;-68
2022/08/25 13:05:50;;;;;;;1.77;1.70;;;;;;;;;;5051927;28;20850;-67
2022/08/25 13:08:27;;;;;;;1.80;1.80;;;;;;;;;;5053593;28;20255;-70
2022/08/25 13:10:56;;;;;;;2.03;1.80;;;;;;;;;;5060905;28;20206;-70
2022/08/25 13:13:31;;;;;;;1.80;1.70;;;;;;;;;;5047663;28;20254;-68
2022/08/25 13:16:00;;;;;;;1.80;1.80;;;;;;;;;;5048892;28;20226;-69
2022/08/25 13:18:28;;;;;;;1.45;1.45;;;;;;;;;;5060791;28;20238;-69
2022/08/25 13:21:02;;;;;;;1.73;1.63;;;;;;;;;;5062432;28;20207;-69
2022/08/25 13:23:30;;;;;;;1.45;1.45;;;;;;;;;;5060200;28;20230;-68
2022/08/25 13:25:58;;;;;;;1.52;1.52;;;;;;;;;;5061010;28;20203;-71
2022/08/25 13:28:30;;;;;;;1.40;1.40;;;;;;;;;;5063426;28;20748;-69
2022/08/25 13:31:03;;;;;;;1.70;1.40;;;;;;;;;;5057772;28;20211;-69
2022/08/25 13:33:32;;;;;;;1.50;1.50;;;;;;;;;;5070533;28;20649;-69
2022/08/25 13:39:11;;;;;;;1.88;1.13;;;;;;;;;;5008229;28;20208;-69
2022/08/25 13:41:44;;;;;;;1.50;1.50;;;;;;;;;;4987214;28;20588;-67
2022/08/25 13:44:12;;;;;;;1.88;1.77;;;;;;;;;;5032447;28;20211;-69
2022/08/25 13:46:39;;;;;;;1.77;1.67;;;;;;;;;;5068633;28;20206;-67
2022/08/25 13:49:07;;;;;;;1.98;1.98;;;;;;;;;;5065383;28;20198;-69
2022/08/25 13:51:34;;;;;;;2.20;2.00;;;;;;;;;;5065729;28;20684;-69
2022/08/25 13:54:02;;;;;;;1.92;1.83;;;;;;;;;;5069865;28;20202;-70
2022/08/25 13:56:32;;;;;;;1.38;1.33;;;;;;;;;;5065342;28;20230;-69
2022/08/25 13:59:02;;;;;;;1.80;1.70;;;;;;;;;;5066391;28;20297;-69
2022/08/25 14:01:30;;;;;;;2.05;1.95;;;;;;;;;;5060041;28;20673;-72
2022/08/25 14:04:18;;;;;;;1.50;1.50;;;;;;;;;;5064112;28;20573;-69
2022/08/25 14:06:46;;;;;;;1.45;1.45;;;;;;;;;;5063286;28;20633;-71
2022/08/25 14:09:15;;;;;;;1.67;1.67;;;;;;;;;;5046147;28;20667;-68
2022/08/25 14:11:43;;;;;;;1.90;1.80;;;;;;;;;;5059117;28;20269;-70
2022/08/25 14:14:13;;;;;;;1.92;1.92;;;;;;;;;;5067026;28;20229;-70
2022/08/25 14:16:46;;;;;;;1.77;1.70;;;;;;;;;;5063923;28;20234;-64
2022/08/25 14:19:15;;;;;;;1.70;1.65;;;;;;;;;;5050795;28;20665;-64
2022/08/25 14:21:42;;;;;;;1.63;1.63;;;;;;;;;;5063597;28;20233;-64
2022/08/25 14:24:11;;;;;;;1.60;1.60;;;;;;;;;;5049447;28;20207;-62
2022/08/25 14:26:38;;;;;;;1.60;1.60;;;;;;;;;;5055717;28;20313;-63
2022/08/25 14:29:05;;;;;;;1.55;1.55;;;;;;;;;;5054179;28;20203;-63
2022/08/25 14:31:34;;;;;;;1.55;1.55;;;;;;;;;;5059363;28;20229;-63
2022/08/25 14:34:03;;;;;;;1.95;1.95;;;;;;;;;;5066154;28;20207;-68
2022/08/25 14:36:31;;;;;;;1.50;1.50;;;;;;;;;;5062163;28;20214;-64
2022/08/25 14:38:59;;;;;;;1.73;1.70;;;;;;;;;;5065843;28;20999;-66
2022/08/25 14:41:27;;;;;;;1.48;1.48;;;;;;;;;;5063137;28;20848;-64
2022/08/25 14:43:54;;;;;;;1.90;1.80;;;;;;;;;;5067064;28;20276;-64
2022/08/25 14:46:22;;;;;;;1.80;1.70;;;;;;;;;;5047374;28;20561;-65
2022/08/25 14:48:53;;;;;;;1.88;1.63;;;;;;;;;;5049568;28;20226;-66
2022/08/25 14:51:20;;;;;;;1.60;1.60;;;;;;;;;;5060725;28;20200;-64
2022/08/25 14:53:47;;;;;;;2.10;2.00;;;;;;;;;;5044180;28;20211;-65
2022/08/25 14:56:14;;;;;;;1.67;1.67;;;;;;;;;;5063994;28;20199;-65
2022/08/25 14:58:43;;;;;;;1.85;1.75;;;;;;;;;;5063006;28;20669;-66
2022/08/25 15:01:12;;;;;;;1.80;1.70;;;;;;;;;;5059441;28;20199;-64
2022/08/25 15:03:41;;;;;;;1.90;1.70;;;;;;;;;;5053436;28;20623;-74
2022/08/25 15:06:08;;;;;;;1.80;1.70;;;;;;;;;;5054423;28;20604;-65